sensor_id;sensor_type;location;lat;lon;timestamp;P1;durP1;ratioP1;P2;durP2;ratioP2
58354;SDS011;44160;49.080;19.302;2022-12-18T00:01:23;61.70;;;20.85;;
58354;SDS011;44160;49.080;19.302;2022-12-18T00:03:50;58.85;;;19.10;;
58354;SDS011;44160;49.080;19.302;2022-12-18T00:06:16;57.45;;;20.90;;
58354;SDS011;44160;49.080;19.302;2022-12-18T00:08:43;52.03;;;19.88;;
58354;SDS011;44160;49.080;19.302;2022-12-18T00:11:14;57.63;;;19.63;;
58354;SDS011;44160;49.080;19.302;2022-12-18T00:13:40;55.65;;;20.80;;
58354;SDS011;44160;49.080;19.302;2022-12-18T00:16:10;59.20;;;22.08;;
58354;SDS011;44160;49.080;19.302;2022-12-18T00:18:37;55.30;;;20.48;;
58354;SDS011;44160;49.080;19.302;2022-12-18T00:21:04;70.85;;;25.05;;
58354;SDS011;44160;49.080;19.302;2022-12-18T00:23:31;72.93;;;26.52;;
58354;SDS011;44160;49.080;19.302;2022-12-18T00:26:05;73.55;;;27.20;;
58354;SDS011;44160;49.080;19.302;2022-12-18T00:28:31;87.93;;;28.95;;
58354;SDS011;44160;49.080;19.302;2022-12-18T00:31:01;95.28;;;29.52;;
58354;SDS011;44160;49.080;19.302;2022-12-18T00:33:27;81.88;;;27.50;;
58354;SDS011;44160;49.080;19.302;2022-12-18T00:35:53;79.03;;;28.35;;
58354;SDS011;44160;49.080;19.302;2022-12-18T00:38:19;87.38;;;29.58;;
58354;SDS011;44160;49.080;19.302;2022-12-18T00:40:45;86.05;;;25.85;;
58354;SDS011;44160;49.080;19.302;2022-12-18T00:43:11;76.38;;;27.20;;
58354;SDS011;44160;49.080;19.302;2022-12-18T00:45:37;70.22;;;26.63;;
58354;SDS011;44160;49.080;19.302;2022-12-18T00:48:03;75.20;;;23.52;;
58354;SDS011;44160;49.080;19.302;2022-12-18T00:50:29;69.30;;;23.55;;
58354;SDS011;44160;49.080;19.302;2022-12-18T00:52:55;65.65;;;22.98;;
58354;SDS011;44160;49.080;19.302;2022-12-18T00:55:21;57.40;;;22.45;;
58354;SDS011;44160;49.080;19.302;2022-12-18T00:57:47;64.60;;;21.65;;
58354;SDS011;44160;49.080;19.302;2022-12-18T01:00:14;55.30;;;22.23;;
58354;SDS011;44160;49.080;19.302;2022-12-18T01:02:40;71.18;;;23.30;;
58354;SDS011;44160;49.080;19.302;2022-12-18T01:05:07;61.13;;;21.85;;
58354;SDS011;44160;49.080;19.302;2022-12-18T01:07:33;60.90;;;21.15;;
58354;SDS011;44160;49.080;19.302;2022-12-18T01:09:59;58.90;;;21.15;;
58354;SDS011;44160;49.080;19.302;2022-12-18T01:12:25;59.42;;;21.38;;
58354;SDS011;44160;49.080;19.302;2022-12-18T01:14:51;49.95;;;19.60;;
58354;SDS011;44160;49.080;19.302;2022-12-18T01:17:18;54.78;;;20.48;;
58354;SDS011;44160;49.080;19.302;2022-12-18T01:19:44;46.85;;;17.80;;
58354;SDS011;44160;49.080;19.302;2022-12-18T01:22:10;55.78;;;19.27;;
58354;SDS011;44160;49.080;19.302;2022-12-18T01:24:36;47.45;;;17.95;;
58354;SDS011;44160;49.080;19.302;2022-12-18T01:27:02;56.80;;;21.75;;
58354;SDS011;44160;49.080;19.302;2022-12-18T01:29:28;57.30;;;20.80;;
58354;SDS011;44160;49.080;19.302;2022-12-18T01:31:54;73.45;;;24.23;;
58354;SDS011;44160;49.080;19.302;2022-12-18T01:34:22;62.35;;;23.27;;
58354;SDS011;44160;49.080;19.302;2022-12-18T01:36:48;63.83;;;24.63;;
58354;SDS011;44160;49.080;19.302;2022-12-18T01:39:17;68.97;;;23.17;;
58354;SDS011;44160;49.080;19.302;2022-12-18T01:41:43;50.47;;;18.77;;
58354;SDS011;44160;49.080;19.302;2022-12-18T01:47:17;50.67;;;19.30;;
58354;SDS011;44160;49.080;19.302;2022-12-18T01:49:43;53.05;;;19.33;;
58354;SDS011;44160;49.080;19.302;2022-12-18T01:52:10;46.53;;;19.08;;
58354;SDS011;44160;49.080;19.302;2022-12-18T01:54:36;56.45;;;20.90;;
58354;SDS011;44160;49.080;19.302;2022-12-18T01:57:02;55.17;;;19.48;;
58354;SDS011;44160;49.080;19.302;2022-12-18T01:59:28;54.63;;;18.67;;
58354;SDS011;44160;49.080;19.302;2022-12-18T02:01:57;53.85;;;17.20;;
58354;SDS011;44160;49.080;19.302;2022-12-18T02:04:24;61.97;;;20.55;;
58354;SDS011;44160;49.080;19.302;2022-12-18T02:06:51;51.40;;;21.10;;
58354;SDS011;44160;49.080;19.302;2022-12-18T02:09:22;53.63;;;20.08;;
58354;SDS011;44160;49.080;19.302;2022-12-18T02:12:02;53.70;;;19.38;;
58354;SDS011;44160;49.080;19.302;2022-12-18T02:27:44;56.08;;;20.80;;
58354;SDS011;44160;49.080;19.302;2022-12-18T02:30:11;58.53;;;20.15;;
58354;SDS011;44160;49.080;19.302;2022-12-18T02:32:39;58.92;;;19.70;;
58354;SDS011;44160;49.080;19.302;2022-12-18T02:35:06;55.65;;;19.17;;
58354;SDS011;44160;49.080;19.302;2022-12-18T02:37:34;66.07;;;22.17;;
58354;SDS011;44160;49.080;19.302;2022-12-18T02:40:00;53.92;;;20.23;;
58354;SDS011;44160;49.080;19.302;2022-12-18T02:42:28;59.63;;;19.83;;
58354;SDS011;44160;49.080;19.302;2022-12-18T02:44:54;63.33;;;21.17;;
58354;SDS011;44160;49.080;19.302;2022-12-18T02:47:21;63.25;;;20.02;;
58354;SDS011;44160;49.080;19.302;2022-12-18T02:52:34;51.55;;;18.67;;
58354;SDS011;44160;49.080;19.302;2022-12-18T02:58:03;47.38;;;17.13;;
58354;SDS011;44160;49.080;19.302;2022-12-18T03:02:57;41.88;;;16.48;;
58354;SDS011;44160;49.080;19.302;2022-12-18T03:05:40;43.57;;;16.87;;
58354;SDS011;44160;49.080;19.302;2022-12-18T03:08:08;47.97;;;17.30;;
58354;SDS011;44160;49.080;19.302;2022-12-18T03:10:38;41.28;;;17.48;;
58354;SDS011;44160;49.080;19.302;2022-12-18T03:13:09;48.45;;;18.27;;
58354;SDS011;44160;49.080;19.302;2022-12-18T03:15:37;38.77;;;15.53;;
58354;SDS011;44160;49.080;19.302;2022-12-18T03:18:05;37.95;;;15.35;;
58354;SDS011;44160;49.080;19.302;2022-12-18T03:20:34;39.42;;;15.73;;
58354;SDS011;44160;49.080;19.302;2022-12-18T03:23:11;38.83;;;15.35;;
58354;SDS011;44160;49.080;19.302;2022-12-18T03:25:39;42.13;;;16.20;;
58354;SDS011;44160;49.080;19.302;2022-12-18T03:28:06;36.80;;;16.23;;
58354;SDS011;44160;49.080;19.302;2022-12-18T03:30:33;45.05;;;15.05;;
58354;SDS011;44160;49.080;19.302;2022-12-18T03:33:06;39.78;;;16.33;;
58354;SDS011;44160;49.080;19.302;2022-12-18T03:35:34;42.70;;;15.27;;
58354;SDS011;44160;49.080;19.302;2022-12-18T03:38:01;41.22;;;16.55;;
58354;SDS011;44160;49.080;19.302;2022-12-18T03:40:30;46.10;;;15.88;;
58354;SDS011;44160;49.080;19.302;2022-12-18T03:43:03;42.53;;;16.08;;
58354;SDS011;44160;49.080;19.302;2022-12-18T03:45:34;42.53;;;17.50;;
58354;SDS011;44160;49.080;19.302;2022-12-18T03:51:11;37.15;;;16.75;;
58354;SDS011;44160;49.080;19.302;2022-12-18T03:53:46;43.17;;;15.30;;
58354;SDS011;44160;49.080;19.302;2022-12-18T03:56:15;44.00;;;14.85;;
58354;SDS011;44160;49.080;19.302;2022-12-18T03:58:42;36.08;;;15.70;;
58354;SDS011;44160;49.080;19.302;2022-12-18T04:01:08;36.88;;;15.27;;
58354;SDS011;44160;49.080;19.302;2022-12-18T04:03:35;43.38;;;15.90;;
58354;SDS011;44160;49.080;19.302;2022-12-18T04:06:02;45.10;;;15.82;;
58354;SDS011;44160;49.080;19.302;2022-12-18T04:08:28;38.38;;;14.30;;
58354;SDS011;44160;49.080;19.302;2022-12-18T04:10:54;37.83;;;14.68;;
58354;SDS011;44160;49.080;19.302;2022-12-18T04:13:24;32.60;;;13.50;;
58354;SDS011;44160;49.080;19.302;2022-12-18T04:15:53;40.20;;;14.60;;
58354;SDS011;44160;49.080;19.302;2022-12-18T04:18:19;34.15;;;14.40;;
58354;SDS011;44160;49.080;19.302;2022-12-18T04:20:45;36.80;;;15.77;;
58354;SDS011;44160;49.080;19.302;2022-12-18T04:23:11;36.80;;;14.23;;
58354;SDS011;44160;49.080;19.302;2022-12-18T04:25:37;36.13;;;14.18;;
58354;SDS011;44160;49.080;19.302;2022-12-18T04:28:03;39.42;;;15.57;;
58354;SDS011;44160;49.080;19.302;2022-12-18T04:30:30;46.28;;;16.13;;
58354;SDS011;44160;49.080;19.302;2022-12-18T04:32:56;32.47;;;13.25;;
58354;SDS011;44160;49.080;19.302;2022-12-18T04:35:22;33.75;;;13.32;;
58354;SDS011;44160;49.080;19.302;2022-12-18T04:37:48;36.38;;;13.70;;
58354;SDS011;44160;49.080;19.302;2022-12-18T04:40:14;37.95;;;13.27;;
58354;SDS011;44160;49.080;19.302;2022-12-18T04:42:40;32.55;;;12.88;;
58354;SDS011;44160;49.080;19.302;2022-12-18T04:45:06;38.22;;;12.75;;
58354;SDS011;44160;49.080;19.302;2022-12-18T04:47:33;35.58;;;13.10;;
58354;SDS011;44160;49.080;19.302;2022-12-18T04:49:59;33.28;;;13.82;;
58354;SDS011;44160;49.080;19.302;2022-12-18T04:52:25;37.53;;;13.10;;
58354;SDS011;44160;49.080;19.302;2022-12-18T04:54:52;34.38;;;12.32;;
58354;SDS011;44160;49.080;19.302;2022-12-18T04:57:18;29.95;;;12.93;;
58354;SDS011;44160;49.080;19.302;2022-12-18T04:59:44;30.05;;;12.82;;
58354;SDS011;44160;49.080;19.302;2022-12-18T05:02:10;34.50;;;13.93;;
58354;SDS011;44160;49.080;19.302;2022-12-18T05:04:36;34.60;;;13.38;;
58354;SDS011;44160;49.080;19.302;2022-12-18T05:07:02;33.33;;;12.15;;
58354;SDS011;44160;49.080;19.302;2022-12-18T05:09:29;29.77;;;13.38;;
58354;SDS011;44160;49.080;19.302;2022-12-18T05:11:55;52.40;;;16.15;;
58354;SDS011;44160;49.080;19.302;2022-12-18T05:14:21;42.13;;;16.35;;
58354;SDS011;44160;49.080;19.302;2022-12-18T05:16:47;47.13;;;15.32;;
58354;SDS011;44160;49.080;19.302;2022-12-18T05:19:14;30.85;;;13.90;;
58354;SDS011;44160;49.080;19.302;2022-12-18T05:21:39;31.30;;;13.55;;
58354;SDS011;44160;49.080;19.302;2022-12-18T05:24:06;31.98;;;13.65;;
58354;SDS011;44160;49.080;19.302;2022-12-18T05:26:32;30.27;;;13.38;;
58354;SDS011;44160;49.080;19.302;2022-12-18T05:28:58;32.95;;;12.88;;
58354;SDS011;44160;49.080;19.302;2022-12-18T05:31:24;25.00;;;11.60;;
58354;SDS011;44160;49.080;19.302;2022-12-18T05:33:50;24.33;;;11.50;;
58354;SDS011;44160;49.080;19.302;2022-12-18T05:36:16;29.52;;;12.15;;
58354;SDS011;44160;49.080;19.302;2022-12-18T05:38:42;33.33;;;13.13;;
58354;SDS011;44160;49.080;19.302;2022-12-18T05:41:08;28.58;;;12.90;;
58354;SDS011;44160;49.080;19.302;2022-12-18T05:43:35;35.97;;;13.15;;
58354;SDS011;44160;49.080;19.302;2022-12-18T05:46:08;31.65;;;12.10;;
58354;SDS011;44160;49.080;19.302;2022-12-18T05:48:36;30.95;;;12.93;;
58354;SDS011;44160;49.080;19.302;2022-12-18T05:51:06;26.02;;;11.32;;
58354;SDS011;44160;49.080;19.302;2022-12-18T05:53:32;29.20;;;13.23;;
58354;SDS011;44160;49.080;19.302;2022-12-18T05:55:59;28.08;;;12.40;;
58354;SDS011;44160;49.080;19.302;2022-12-18T05:58:25;29.38;;;12.55;;
58354;SDS011;44160;49.080;19.302;2022-12-18T06:00:51;25.30;;;12.82;;
58354;SDS011;44160;49.080;19.302;2022-12-18T06:03:17;32.58;;;12.73;;
58354;SDS011;44160;49.080;19.302;2022-12-18T06:05:44;42.30;;;14.32;;
58354;SDS011;44160;49.080;19.302;2022-12-18T06:08:11;27.65;;;12.32;;
58354;SDS011;44160;49.080;19.302;2022-12-18T06:10:37;33.60;;;12.15;;
58354;SDS011;44160;49.080;19.302;2022-12-18T06:13:04;35.38;;;12.90;;
58354;SDS011;44160;49.080;19.302;2022-12-18T06:15:30;27.25;;;12.40;;
58354;SDS011;44160;49.080;19.302;2022-12-18T06:17:56;29.25;;;12.88;;
58354;SDS011;44160;49.080;19.302;2022-12-18T06:20:22;31.27;;;12.68;;
58354;SDS011;44160;49.080;19.302;2022-12-18T06:22:48;29.25;;;12.90;;
58354;SDS011;44160;49.080;19.302;2022-12-18T06:25:14;29.30;;;13.25;;
58354;SDS011;44160;49.080;19.302;2022-12-18T06:27:40;36.13;;;13.25;;
58354;SDS011;44160;49.080;19.302;2022-12-18T06:30:06;28.00;;;12.32;;
58354;SDS011;44160;49.080;19.302;2022-12-18T06:32:33;32.70;;;14.30;;
58354;SDS011;44160;49.080;19.302;2022-12-18T06:34:59;36.65;;;14.30;;
58354;SDS011;44160;49.080;19.302;2022-12-18T06:37:25;41.00;;;15.68;;
58354;SDS011;44160;49.080;19.302;2022-12-18T06:39:54;38.88;;;15.25;;
58354;SDS011;44160;49.080;19.302;2022-12-18T06:42:21;44.88;;;17.48;;
58354;SDS011;44160;49.080;19.302;2022-12-18T06:44:48;50.30;;;17.55;;
58354;SDS011;44160;49.080;19.302;2022-12-18T06:47:14;38.72;;;16.63;;
58354;SDS011;44160;49.080;19.302;2022-12-18T06:49:41;34.35;;;14.35;;
58354;SDS011;44160;49.080;19.302;2022-12-18T06:52:07;37.88;;;14.98;;
58354;SDS011;44160;49.080;19.302;2022-12-18T06:54:33;39.45;;;16.05;;
58354;SDS011;44160;49.080;19.302;2022-12-18T06:56:59;31.75;;;14.00;;
58354;SDS011;44160;49.080;19.302;2022-12-18T06:59:25;36.50;;;12.68;;
58354;SDS011;44160;49.080;19.302;2022-12-18T07:01:51;38.75;;;14.48;;
58354;SDS011;44160;49.080;19.302;2022-12-18T07:04:19;34.72;;;14.02;;
58354;SDS011;44160;49.080;19.302;2022-12-18T07:06:45;54.22;;;21.88;;
58354;SDS011;44160;49.080;19.302;2022-12-18T07:09:11;32.83;;;15.38;;
58354;SDS011;44160;49.080;19.302;2022-12-18T07:11:37;33.28;;;13.65;;
58354;SDS011;44160;49.080;19.302;2022-12-18T07:14:03;37.13;;;15.02;;
58354;SDS011;44160;49.080;19.302;2022-12-18T07:16:29;36.80;;;16.60;;
58354;SDS011;44160;49.080;19.302;2022-12-18T07:18:55;39.22;;;16.40;;
58354;SDS011;44160;49.080;19.302;2022-12-18T07:21:21;37.60;;;16.42;;
58354;SDS011;44160;49.080;19.302;2022-12-18T07:23:48;43.40;;;18.33;;
58354;SDS011;44160;49.080;19.302;2022-12-18T07:26:14;41.35;;;18.00;;
58354;SDS011;44160;49.080;19.302;2022-12-18T07:28:41;40.53;;;17.52;;
58354;SDS011;44160;49.080;19.302;2022-12-18T07:31:19;38.83;;;15.73;;
58354;SDS011;44160;49.080;19.302;2022-12-18T07:33:45;42.33;;;15.88;;
58354;SDS011;44160;49.080;19.302;2022-12-18T07:36:11;27.13;;;13.90;;
58354;SDS011;44160;49.080;19.302;2022-12-18T07:38:38;36.05;;;15.07;;
58354;SDS011;44160;49.080;19.302;2022-12-18T07:41:04;38.83;;;16.02;;
58354;SDS011;44160;49.080;19.302;2022-12-18T07:43:31;30.98;;;13.77;;
58354;SDS011;44160;49.080;19.302;2022-12-18T07:45:57;29.63;;;14.02;;
58354;SDS011;44160;49.080;19.302;2022-12-18T07:48:23;26.95;;;13.38;;
58354;SDS011;44160;49.080;19.302;2022-12-18T07:50:49;39.90;;;15.65;;
58354;SDS011;44160;49.080;19.302;2022-12-18T07:53:15;33.88;;;15.50;;
58354;SDS011;44160;49.080;19.302;2022-12-18T07:55:42;36.97;;;16.08;;
58354;SDS011;44160;49.080;19.302;2022-12-18T07:58:08;36.53;;;15.65;;
58354;SDS011;44160;49.080;19.302;2022-12-18T08:00:34;36.55;;;15.38;;
58354;SDS011;44160;49.080;19.302;2022-12-18T08:03:01;36.75;;;15.65;;
58354;SDS011;44160;49.080;19.302;2022-12-18T08:05:27;61.05;;;21.90;;
58354;SDS011;44160;49.080;19.302;2022-12-18T08:07:53;76.22;;;24.63;;
58354;SDS011;44160;49.080;19.302;2022-12-18T08:10:20;80.57;;;28.77;;
58354;SDS011;44160;49.080;19.302;2022-12-18T08:12:48;60.22;;;23.00;;
58354;SDS011;44160;49.080;19.302;2022-12-18T08:15:15;34.53;;;15.90;;
58354;SDS011;44160;49.080;19.302;2022-12-18T08:17:41;36.78;;;15.93;;
58354;SDS011;44160;49.080;19.302;2022-12-18T08:20:07;37.35;;;16.13;;
58354;SDS011;44160;49.080;19.302;2022-12-18T08:22:34;33.50;;;16.48;;
58354;SDS011;44160;49.080;19.302;2022-12-18T08:25:00;34.63;;;16.55;;
58354;SDS011;44160;49.080;19.302;2022-12-18T08:27:26;34.67;;;15.43;;
58354;SDS011;44160;49.080;19.302;2022-12-18T08:29:52;43.72;;;16.33;;
58354;SDS011;44160;49.080;19.302;2022-12-18T08:32:18;39.33;;;17.55;;
58354;SDS011;44160;49.080;19.302;2022-12-18T08:34:44;35.72;;;14.38;;
58354;SDS011;44160;49.080;19.302;2022-12-18T08:37:11;39.60;;;15.10;;
58354;SDS011;44160;49.080;19.302;2022-12-18T08:39:37;31.45;;;14.15;;
58354;SDS011;44160;49.080;19.302;2022-12-18T08:42:03;29.58;;;13.98;;
58354;SDS011;44160;49.080;19.302;2022-12-18T08:44:47;34.92;;;14.98;;
58354;SDS011;44160;49.080;19.302;2022-12-18T08:47:13;39.08;;;15.75;;
58354;SDS011;44160;49.080;19.302;2022-12-18T08:49:39;38.35;;;15.98;;
58354;SDS011;44160;49.080;19.302;2022-12-18T08:52:06;34.80;;;15.93;;
58354;SDS011;44160;49.080;19.302;2022-12-18T08:54:32;36.35;;;15.23;;
58354;SDS011;44160;49.080;19.302;2022-12-18T08:56:58;43.50;;;17.00;;
58354;SDS011;44160;49.080;19.302;2022-12-18T08:59:24;44.85;;;19.05;;
58354;SDS011;44160;49.080;19.302;2022-12-18T09:01:53;43.45;;;18.73;;
58354;SDS011;44160;49.080;19.302;2022-12-18T09:04:19;49.50;;;19.95;;
58354;SDS011;44160;49.080;19.302;2022-12-18T09:06:46;42.40;;;17.98;;
58354;SDS011;44160;49.080;19.302;2022-12-18T09:09:12;43.53;;;17.15;;
58354;SDS011;44160;49.080;19.302;2022-12-18T09:11:38;45.95;;;21.13;;
58354;SDS011;44160;49.080;19.302;2022-12-18T09:14:04;51.03;;;21.73;;
58354;SDS011;44160;49.080;19.302;2022-12-18T09:16:31;57.28;;;20.25;;
58354;SDS011;44160;49.080;19.302;2022-12-18T09:18:57;55.22;;;23.13;;
58354;SDS011;44160;49.080;19.302;2022-12-18T09:21:27;52.28;;;18.85;;
58354;SDS011;44160;49.080;19.302;2022-12-18T09:23:54;51.65;;;19.42;;
58354;SDS011;44160;49.080;19.302;2022-12-18T09:26:21;62.55;;;21.73;;
58354;SDS011;44160;49.080;19.302;2022-12-18T09:28:47;60.53;;;21.95;;
58354;SDS011;44160;49.080;19.302;2022-12-18T09:31:13;58.20;;;20.63;;
58354;SDS011;44160;49.080;19.302;2022-12-18T09:33:40;72.78;;;24.20;;
58354;SDS011;44160;49.080;19.302;2022-12-18T09:36:08;61.55;;;22.98;;
58354;SDS011;44160;49.080;19.302;2022-12-18T09:38:35;54.78;;;22.38;;
58354;SDS011;44160;49.080;19.302;2022-12-18T09:43:47;54.80;;;21.40;;
58354;SDS011;44160;49.080;19.302;2022-12-18T09:46:19;55.70;;;23.30;;
58354;SDS011;44160;49.080;19.302;2022-12-18T09:48:47;64.47;;;25.05;;
58354;SDS011;44160;49.080;19.302;2022-12-18T09:51:16;70.00;;;25.30;;
58354;SDS011;44160;49.080;19.302;2022-12-18T09:53:49;69.20;;;25.00;;
58354;SDS011;44160;49.080;19.302;2022-12-18T09:56:16;64.63;;;23.00;;
58354;SDS011;44160;49.080;19.302;2022-12-18T09:58:55;65.40;;;24.17;;
58354;SDS011;44160;49.080;19.302;2022-12-18T10:01:23;61.15;;;22.30;;
58354;SDS011;44160;49.080;19.302;2022-12-18T10:03:49;69.00;;;28.27;;
58354;SDS011;44160;49.080;19.302;2022-12-18T10:06:25;65.75;;;24.75;;
58354;SDS011;44160;49.080;19.302;2022-12-18T10:11:43;77.22;;;27.13;;
58354;SDS011;44160;49.080;19.302;2022-12-18T10:19:40;76.05;;;28.70;;
58354;SDS011;44160;49.080;19.302;2022-12-18T10:27:14;81.32;;;28.23;;
58354;SDS011;44160;49.080;19.302;2022-12-18T10:29:41;77.50;;;27.20;;
58354;SDS011;44160;49.080;19.302;2022-12-18T10:32:09;85.50;;;26.73;;
58354;SDS011;44160;49.080;19.302;2022-12-18T10:34:39;80.53;;;26.48;;
58354;SDS011;44160;49.080;19.302;2022-12-18T10:37:06;73.30;;;29.15;;
58354;SDS011;44160;49.080;19.302;2022-12-18T10:39:37;76.90;;;27.92;;
58354;SDS011;44160;49.080;19.302;2022-12-18T10:42:37;69.25;;;27.08;;
58354;SDS011;44160;49.080;19.302;2022-12-18T10:45:05;61.97;;;25.23;;
58354;SDS011;44160;49.080;19.302;2022-12-18T10:47:31;61.83;;;24.15;;
58354;SDS011;44160;49.080;19.302;2022-12-18T10:49:59;72.97;;;26.98;;
58354;SDS011;44160;49.080;19.302;2022-12-18T10:52:25;82.28;;;27.92;;
58354;SDS011;44160;49.080;19.302;2022-12-18T10:54:57;59.78;;;22.52;;
58354;SDS011;44160;49.080;19.302;2022-12-18T10:59:53;57.10;;;22.42;;
58354;SDS011;44160;49.080;19.302;2022-12-18T11:04:52;67.63;;;25.48;;
58354;SDS011;44160;49.080;19.302;2022-12-18T11:07:18;65.53;;;24.70;;
58354;SDS011;44160;49.080;19.302;2022-12-18T11:09:45;55.53;;;22.30;;
58354;SDS011;44160;49.080;19.302;2022-12-18T11:12:24;61.83;;;25.08;;
58354;SDS011;44160;49.080;19.302;2022-12-18T11:14:53;68.90;;;25.92;;
58354;SDS011;44160;49.080;19.302;2022-12-18T11:17:29;67.70;;;23.85;;
58354;SDS011;44160;49.080;19.302;2022-12-18T11:19:56;72.03;;;27.98;;
58354;SDS011;44160;49.080;19.302;2022-12-18T11:22:30;73.18;;;25.98;;
58354;SDS011;44160;49.080;19.302;2022-12-18T11:25:05;63.95;;;25.20;;
58354;SDS011;44160;49.080;19.302;2022-12-18T11:27:32;65.90;;;27.23;;
58354;SDS011;44160;49.080;19.302;2022-12-18T11:32:55;70.78;;;25.73;;
58354;SDS011;44160;49.080;19.302;2022-12-18T11:35:30;68.45;;;25.58;;
58354;SDS011;44160;49.080;19.302;2022-12-18T11:37:59;63.50;;;25.10;;
58354;SDS011;44160;49.080;19.302;2022-12-18T11:40:37;70.05;;;26.90;;
58354;SDS011;44160;49.080;19.302;2022-12-18T11:45:34;65.10;;;24.67;;
58354;SDS011;44160;49.080;19.302;2022-12-18T11:48:03;73.30;;;28.15;;
58354;SDS011;44160;49.080;19.302;2022-12-18T11:53:03;72.35;;;28.13;;
58354;SDS011;44160;49.080;19.302;2022-12-18T12:00:35;69.50;;;27.23;;
58354;SDS011;44160;49.080;19.302;2022-12-18T12:03:13;84.50;;;30.45;;
58354;SDS011;44160;49.080;19.302;2022-12-18T12:05:55;75.82;;;27.05;;
58354;SDS011;44160;49.080;19.302;2022-12-18T12:13:26;82.18;;;29.25;;
58354;SDS011;44160;49.080;19.302;2022-12-18T12:21:39;74.40;;;29.10;;
58354;SDS011;44160;49.080;19.302;2022-12-18T12:27:00;70.85;;;26.88;;
58354;SDS011;44160;49.080;19.302;2022-12-18T12:29:35;69.18;;;26.73;;
58354;SDS011;44160;49.080;19.302;2022-12-18T12:37:26;70.15;;;29.00;;
58354;SDS011;44160;49.080;19.302;2022-12-18T12:39:55;69.60;;;26.15;;
58354;SDS011;44160;49.080;19.302;2022-12-18T12:42:32;78.88;;;29.23;;
58354;SDS011;44160;49.080;19.302;2022-12-18T12:48:01;81.55;;;30.92;;
58354;SDS011;44160;49.080;19.302;2022-12-18T12:50:28;87.60;;;30.73;;
58354;SDS011;44160;49.080;19.302;2022-12-18T12:52:56;76.05;;;28.25;;
58354;SDS011;44160;49.080;19.302;2022-12-18T12:55:26;84.32;;;28.23;;
58354;SDS011;44160;49.080;19.302;2022-12-18T12:57:55;77.05;;;29.17;;
58354;SDS011;44160;49.080;19.302;2022-12-18T13:00:23;74.50;;;29.80;;
58354;SDS011;44160;49.080;19.302;2022-12-18T13:03:08;80.68;;;32.15;;
58354;SDS011;44160;49.080;19.302;2022-12-18T13:08:10;81.00;;;30.17;;
58354;SDS011;44160;49.080;19.302;2022-12-18T13:10:46;75.22;;;27.67;;
58354;SDS011;44160;49.080;19.302;2022-12-18T13:13:15;74.97;;;27.15;;
58354;SDS011;44160;49.080;19.302;2022-12-18T13:18:26;80.70;;;30.35;;
58354;SDS011;44160;49.080;19.302;2022-12-18T13:25:51;87.50;;;31.15;;
58354;SDS011;44160;49.080;19.302;2022-12-18T13:31:02;79.57;;;30.35;;
58354;SDS011;44160;49.080;19.302;2022-12-18T13:38:37;74.60;;;29.73;;
58354;SDS011;44160;49.080;19.302;2022-12-18T13:48:53;92.25;;;32.95;;
58354;SDS011;44160;49.080;19.302;2022-12-18T13:51:21;90.90;;;31.90;;
58354;SDS011;44160;49.080;19.302;2022-12-18T13:53:51;89.07;;;33.17;;
58354;SDS011;44160;49.080;19.302;2022-12-18T13:56:23;95.57;;;34.80;;
58354;SDS011;44160;49.080;19.302;2022-12-18T14:01:34;98.63;;;36.35;;
58354;SDS011;44160;49.080;19.302;2022-12-18T14:04:10;92.95;;;35.13;;
58354;SDS011;44160;49.080;19.302;2022-12-18T14:06:36;91.13;;;35.47;;
58354;SDS011;44160;49.080;19.302;2022-12-18T14:09:03;104.78;;;38.15;;
58354;SDS011;44160;49.080;19.302;2022-12-18T14:11:29;114.88;;;41.10;;
58354;SDS011;44160;49.080;19.302;2022-12-18T14:13:55;115.20;;;41.95;;
58354;SDS011;44160;49.080;19.302;2022-12-18T14:16:22;115.53;;;44.13;;
58354;SDS011;44160;49.080;19.302;2022-12-18T14:18:55;138.60;;;44.67;;
58354;SDS011;44160;49.080;19.302;2022-12-18T14:21:23;118.68;;;46.08;;
58354;SDS011;44160;49.080;19.302;2022-12-18T14:24:02;147.07;;;49.80;;
58354;SDS011;44160;49.080;19.302;2022-12-18T14:26:29;134.73;;;50.33;;
58354;SDS011;44160;49.080;19.302;2022-12-18T14:28:59;143.63;;;48.92;;
58354;SDS011;44160;49.080;19.302;2022-12-18T14:31:27;131.13;;;47.63;;
58354;SDS011;44160;49.080;19.302;2022-12-18T14:33:53;137.45;;;49.85;;
58354;SDS011;44160;49.080;19.302;2022-12-18T14:36:21;137.20;;;46.63;;
58354;SDS011;44160;49.080;19.302;2022-12-18T14:38:49;148.98;;;57.00;;
58354;SDS011;44160;49.080;19.302;2022-12-18T14:41:16;137.73;;;51.65;;
58354;SDS011;44160;49.080;19.302;2022-12-18T14:43:43;163.65;;;55.95;;
58354;SDS011;44160;49.080;19.302;2022-12-18T14:46:25;140.18;;;54.83;;
58354;SDS011;44160;49.080;19.302;2022-12-18T14:48:52;115.35;;;43.30;;
58354;SDS011;44160;49.080;19.302;2022-12-18T14:51:20;114.35;;;43.00;;
58354;SDS011;44160;49.080;19.302;2022-12-18T14:53:47;121.00;;;42.67;;
58354;SDS011;44160;49.080;19.302;2022-12-18T14:56:18;106.05;;;37.33;;
58354;SDS011;44160;49.080;19.302;2022-12-18T14:58:49;120.95;;;43.13;;
58354;SDS011;44160;49.080;19.302;2022-12-18T15:01:26;132.75;;;52.45;;
58354;SDS011;44160;49.080;19.302;2022-12-18T15:03:53;101.88;;;37.92;;
58354;SDS011;44160;49.080;19.302;2022-12-18T15:08:55;111.15;;;41.13;;
58354;SDS011;44160;49.080;19.302;2022-12-18T15:11:30;101.80;;;37.13;;
58354;SDS011;44160;49.080;19.302;2022-12-18T15:13:58;111.03;;;41.05;;
58354;SDS011;44160;49.080;19.302;2022-12-18T15:16:25;131.05;;;45.78;;
58354;SDS011;44160;49.080;19.302;2022-12-18T15:18:51;115.55;;;39.92;;
58354;SDS011;44160;49.080;19.302;2022-12-18T15:21:19;100.93;;;36.85;;
58354;SDS011;44160;49.080;19.302;2022-12-18T15:23:49;90.65;;;35.13;;
58354;SDS011;44160;49.080;19.302;2022-12-18T15:26:16;121.43;;;40.28;;
58354;SDS011;44160;49.080;19.302;2022-12-18T15:28:50;104.93;;;36.70;;
58354;SDS011;44160;49.080;19.302;2022-12-18T15:36:19;114.18;;;39.40;;
58354;SDS011;44160;49.080;19.302;2022-12-18T15:38:49;143.93;;;50.83;;
58354;SDS011;44160;49.080;19.302;2022-12-18T15:41:19;133.10;;;41.78;;
58354;SDS011;44160;49.080;19.302;2022-12-18T15:43:46;145.55;;;47.92;;
58354;SDS011;44160;49.080;19.302;2022-12-18T15:46:17;149.82;;;52.65;;
58354;SDS011;44160;49.080;19.302;2022-12-18T15:48:53;137.43;;;49.78;;
58354;SDS011;44160;49.080;19.302;2022-12-18T15:51:24;116.63;;;40.65;;
58354;SDS011;44160;49.080;19.302;2022-12-18T15:53:52;82.90;;;34.28;;
58354;SDS011;44160;49.080;19.302;2022-12-18T15:56:19;107.15;;;37.58;;
58354;SDS011;44160;49.080;19.302;2022-12-18T15:59:08;109.13;;;39.75;;
58354;SDS011;44160;49.080;19.302;2022-12-18T16:01:35;88.38;;;34.80;;
58354;SDS011;44160;49.080;19.302;2022-12-18T16:04:01;77.60;;;30.33;;
58354;SDS011;44160;49.080;19.302;2022-12-18T16:06:27;77.07;;;30.38;;
58354;SDS011;44160;49.080;19.302;2022-12-18T16:08:53;77.13;;;30.00;;
58354;SDS011;44160;49.080;19.302;2022-12-18T16:11:24;95.10;;;31.10;;
58354;SDS011;44160;49.080;19.302;2022-12-18T16:14:10;102.20;;;39.05;;